createdAt,value
2023-03-05T00:00:54.031Z,43.70
2023-03-05T00:01:56.304Z,45.72
2023-03-05T00:02:58.651Z,43.13
2023-03-05T00:04:02.171Z,45.53
2023-03-05T00:05:04.934Z,41.42
2023-03-05T00:06:08.244Z,43.72
2023-03-05T00:07:12.319Z,42.70
2023-03-05T00:08:14.595Z,41.17
2023-03-05T00:09:17.082Z,41.90
2023-03-05T00:10:19.728Z,41.00
2023-03-05T00:11:22.610Z,46.10
2023-03-05T00:12:24.851Z,40.50
2023-03-05T00:13:27.188Z,46.67
2023-03-05T00:14:29.343Z,41.33
2023-03-05T00:15:31.661Z,40.25
2023-03-05T00:16:34.151Z,49.22
2023-03-05T00:17:36.417Z,44.95
2023-03-05T00:18:39.197Z,44.38
2023-03-05T00:19:41.391Z,41.30
2023-03-05T00:20:43.616Z,44.78
2023-03-05T00:21:46.236Z,40.70
2023-03-05T00:22:48.444Z,41.40
2023-03-05T00:23:52.278Z,37.42
2023-03-05T00:24:54.521Z,43.47
2023-03-05T00:25:56.733Z,39.70
2023-03-05T00:26:59.166Z,43.17
2023-03-05T00:28:01.419Z,41.88
2023-03-05T00:29:03.952Z,44.47
2023-03-05T00:30:06.978Z,45.25
2023-03-05T00:31:09.395Z,43.83
2023-03-05T00:32:11.691Z,43.13
2023-03-05T00:33:14.131Z,46.15
2023-03-05T00:34:18.866Z,42.97
2023-03-05T00:35:21.092Z,42.42
2023-03-05T00:36:25.073Z,42.85
2023-03-05T00:37:27.286Z,42.70
2023-03-05T00:38:30.339Z,40.38
2023-03-05T00:39:32.601Z,43.85
2023-03-05T00:40:40.194Z,46.55
2023-03-05T00:41:42.479Z,42.30
2023-03-05T00:42:44.834Z,39.65
2023-03-05T00:43:47.803Z,41.05
2023-03-05T00:44:50.005Z,39.75
2023-03-05T00:45:52.166Z,43.97
2023-03-05T00:46:54.486Z,42.75
2023-03-05T00:47:56.899Z,43.83
2023-03-05T00:48:59.161Z,42.03
2023-03-05T00:50:01.894Z,39.53
2023-03-05T00:51:04.337Z,40.03
2023-03-05T00:52:06.569Z,41.08
2023-03-05T00:53:08.754Z,39.22
2023-03-05T00:54:11.017Z,40.42
2023-03-05T00:55:13.218Z,39.72
2023-03-05T00:56:15.814Z,42.47
2023-03-05T00:57:18.261Z,39.22
2023-03-05T00:58:20.469Z,42.03
2023-03-05T00:59:22.696Z,40.28
2023-03-05T01:00:25.027Z,45.78
2023-03-05T01:01:28.517Z,43.05
2023-03-05T01:02:33.808Z,43.42
2023-03-05T01:03:37.102Z,42.17
2023-03-05T01:04:39.411Z,40.42
2023-03-05T01:05:41.806Z,40.50
2023-03-05T01:06:46.164Z,39.35
2023-03-05T01:07:52.932Z,43.17
2023-03-05T01:08:56.503Z,40.38
2023-03-05T01:09:59.231Z,44.58
2023-03-05T01:11:02.248Z,33.78
2023-03-05T01:12:04.817Z,39.00
2023-03-05T01:13:07.074Z,39.85
2023-03-05T01:14:09.361Z,41.65
2023-03-05T01:15:11.703Z,43.85
2023-03-05T01:16:14.208Z,36.47
2023-03-05T01:17:16.527Z,42.42
2023-03-05T01:18:20.119Z,35.35
2023-03-05T01:19:22.312Z,40.40
2023-03-05T01:20:24.564Z,41.78
2023-03-05T01:21:26.848Z,43.72
2023-03-05T01:22:29.914Z,43.38
2023-03-05T01:23:34.388Z,44.35
2023-03-05T01:24:36.609Z,37.42
2023-03-05T01:25:38.997Z,44.15
2023-03-05T01:26:41.209Z,40.92
2023-03-05T01:27:43.818Z,40.50
2023-03-05T01:28:45.998Z,36.75
2023-03-05T01:29:48.496Z,37.17
2023-03-05T01:30:50.921Z,37.33
2023-03-05T01:31:53.169Z,40.42
2023-03-05T01:32:56.491Z,34.63
2023-03-05T01:34:00.153Z,40.45
2023-03-05T01:35:05.832Z,41.53
2023-03-05T01:36:15.526Z,44.35
2023-03-05T01:37:17.792Z,40.85
2023-03-05T01:38:20.053Z,43.85
2023-03-05T01:39:22.607Z,38.53
2023-03-05T01:40:27.929Z,41.38
2023-03-05T01:41:30.210Z,48.72
2023-03-05T01:42:32.439Z,38.67
2023-03-05T01:43:34.817Z,40.83
2023-03-05T01:44:37.273Z,38.60
2023-03-05T01:46:13.148Z,39.25
2023-03-05T01:47:15.446Z,39.85
2023-03-05T01:48:17.723Z,41.65
2023-03-05T01:49:28.157Z,40.55
2023-03-05T01:50:30.648Z,41.22
2023-03-05T01:51:56.573Z,38.53
2023-03-05T01:53:02.548Z,32.28
2023-03-05T01:54:07.385Z,38.75
2023-03-05T01:55:14.881Z,40.92
2023-03-05T01:56:17.835Z,37.85
2023-03-05T01:57:23.290Z,36.63
2023-03-05T01:58:26.007Z,39.78
2023-03-05T01:59:28.675Z,37.75
2023-03-05T02:02:08.469Z,39.88
2023-03-05T02:03:13.086Z,41.15
2023-03-05T02:04:18.797Z,37.38
2023-03-05T02:05:31.064Z,37.63
2023-03-05T02:06:33.762Z,35.58
2023-03-05T02:07:37.967Z,38.70
2023-03-05T02:08:40.510Z,37.63
2023-03-05T02:09:42.808Z,36.25
2023-03-05T02:10:48.071Z,40.33
2023-03-05T02:11:51.584Z,40.58
2023-03-05T02:13:00.196Z,38.33
2023-03-05T02:14:04.584Z,37.65
2023-03-05T02:15:08.134Z,36.45
2023-03-05T02:16:12.868Z,33.10
2023-03-05T02:17:15.874Z,43.38
2023-03-05T02:18:19.780Z,39.03
2023-03-05T02:19:22.078Z,34.67
2023-03-05T02:20:27.701Z,36.40
2023-03-05T02:21:38.956Z,36.80
2023-03-05T02:22:41.237Z,36.28
2023-03-05T02:23:43.578Z,34.60
2023-03-05T02:24:46.247Z,37.17
2023-03-05T02:25:54.775Z,35.03
2023-03-05T02:26:57.687Z,36.50
2023-03-05T02:28:22.374Z,36.78
2023-03-05T02:29:24.667Z,40.85
2023-03-05T02:30:27.464Z,33.03
2023-03-05T02:31:31.073Z,39.03
2023-03-05T02:32:33.404Z,42.40
2023-03-05T02:33:35.960Z,36.33
2023-03-05T02:34:38.274Z,42.90
2023-03-05T02:35:40.825Z,41.92
2023-03-05T02:36:43.566Z,38.85
2023-03-05T02:37:46.897Z,40.83
2023-03-05T02:38:49.388Z,37.85
2023-03-05T02:39:51.720Z,36.42
2023-03-05T02:40:54.120Z,38.90
2023-03-05T02:41:56.480Z,38.25
2023-03-05T02:42:59.009Z,39.05
2023-03-05T02:44:02.146Z,46.08
2023-03-05T02:45:05.047Z,43.17
2023-03-05T02:46:07.930Z,38.75
2023-03-05T02:47:10.298Z,34.22
2023-03-05T02:48:12.902Z,35.45
2023-03-05T02:49:15.148Z,38.38
2023-03-05T02:50:17.837Z,40.33
2023-03-05T02:51:20.123Z,41.05
2023-03-05T02:52:23.580Z,41.10
2023-03-05T02:53:26.851Z,38.03
2023-03-05T02:54:29.157Z,36.72
2023-03-05T02:55:31.306Z,39.25
2023-03-05T02:56:35.309Z,42.78
2023-03-05T02:57:37.626Z,39.92
2023-03-05T02:58:39.943Z,41.75
2023-03-05T02:59:42.411Z,43.00
2023-03-05T03:00:46.612Z,36.63
2023-03-05T03:01:48.818Z,38.13
2023-03-05T03:02:51.132Z,35.97
2023-03-05T03:03:53.593Z,37.85
2023-03-05T03:04:56.488Z,34.60
2023-03-05T03:05:58.864Z,35.00
2023-03-05T03:07:01.181Z,34.60
2023-03-05T03:08:03.860Z,38.22
2023-03-05T03:09:06.104Z,38.42
2023-03-05T03:10:09.337Z,38.30
2023-03-05T03:11:13.179Z,36.88
2023-03-05T03:12:15.552Z,37.00
2023-03-05T03:13:18.089Z,39.10
2023-03-05T03:14:20.734Z,39.75
2023-03-05T03:15:23.082Z,35.88
2023-03-05T03:16:25.363Z,42.25
2023-03-05T03:17:27.787Z,35.50
2023-03-05T03:18:30.073Z,40.80
2023-03-05T03:19:32.756Z,44.60
2023-03-05T03:20:39.007Z,36.83
2023-03-05T03:21:41.269Z,38.25
2023-03-05T03:22:45.070Z,40.58
2023-03-05T03:23:47.374Z,39.20
2023-03-05T03:24:49.553Z,42.97
2023-03-05T03:25:52.162Z,39.33
2023-03-05T03:26:54.391Z,35.72
2023-03-05T03:27:56.822Z,36.63
2023-03-05T03:28:59.129Z,39.10
2023-03-05T03:30:04.669Z,40.30
2023-03-05T03:31:07.140Z,38.05
2023-03-05T03:32:09.451Z,40.95
2023-03-05T03:33:11.978Z,34.88
2023-03-05T03:34:15.794Z,41.83
2023-03-05T03:35:18.340Z,38.10
2023-03-05T03:36:20.731Z,35.92
2023-03-05T03:37:23.063Z,36.72
2023-03-05T03:38:25.265Z,39.65
2023-03-05T03:39:27.724Z,35.88
2023-03-05T03:40:30.397Z,39.40
2023-03-05T03:41:33.409Z,39.53
2023-03-05T03:42:35.899Z,38.13
2023-03-05T03:43:38.265Z,34.55
2023-03-05T03:44:40.437Z,36.42
2023-03-05T03:45:44.967Z,42.08
2023-03-05T03:46:49.146Z,45.75
2023-03-05T03:47:51.694Z,38.58
2023-03-05T03:48:53.984Z,42.70
2023-03-05T03:49:56.718Z,40.40
2023-03-05T03:50:58.992Z,38.85
2023-03-05T03:52:01.309Z,38.65
2023-03-05T03:53:03.524Z,47.88
2023-03-05T03:54:05.822Z,41.40
2023-03-05T03:55:08.368Z,41.72
2023-03-05T03:56:10.682Z,38.80
2023-03-05T03:57:12.825Z,37.55
2023-03-05T03:58:15.080Z,34.35
2023-03-05T03:59:17.268Z,39.75
2023-03-05T04:00:19.631Z,36.17
2023-03-05T04:01:21.922Z,37.85
2023-03-05T04:02:24.243Z,36.45
2023-03-05T04:03:26.677Z,33.92
2023-03-05T04:04:30.173Z,35.83
2023-03-05T04:05:32.677Z,33.65
2023-03-05T04:06:35.079Z,35.92
2023-03-05T04:07:37.528Z,37.28
2023-03-05T04:08:39.816Z,44.58
2023-03-05T04:09:42.106Z,39.03
2023-03-05T04:10:44.567Z,41.35
2023-03-05T04:11:47.132Z,40.60
2023-03-05T04:12:49.397Z,43.83
2023-03-05T04:13:52.002Z,37.33
2023-03-05T04:14:54.744Z,38.90
2023-03-05T04:15:57.396Z,34.78
2023-03-05T04:16:59.925Z,37.58
2023-03-05T04:18:02.367Z,43.03
2023-03-05T04:19:04.567Z,44.55
2023-03-05T04:20:10.302Z,38.42
2023-03-05T04:21:12.750Z,42.92
2023-03-05T04:22:17.192Z,38.10
2023-03-05T04:23:20.100Z,41.05
2023-03-05T04:24:22.325Z,48.33
2023-03-05T04:25:24.498Z,37.65
2023-03-05T04:26:26.795Z,41.47
2023-03-05T04:27:28.965Z,40.83
2023-03-05T04:28:31.604Z,45.13
2023-03-05T04:29:34.630Z,38.35
2023-03-05T04:30:37.064Z,39.25
2023-03-05T04:31:39.237Z,36.40
2023-03-05T04:32:41.749Z,39.47
2023-03-05T04:33:44.133Z,35.55
2023-03-05T04:34:46.634Z,37.42
2023-03-05T04:35:48.852Z,35.13
2023-03-05T04:36:51.104Z,46.80
2023-03-05T04:37:53.363Z,37.72
2023-03-05T04:38:55.593Z,42.90
2023-03-05T04:39:57.842Z,38.72
2023-03-05T04:41:00.097Z,40.17
2023-03-05T04:42:02.426Z,37.78
2023-03-05T04:43:05.311Z,40.92
2023-03-05T04:44:07.563Z,38.50
2023-03-05T04:45:10.730Z,40.67
2023-03-05T04:46:13.087Z,37.15
2023-03-05T04:47:16.637Z,42.53
2023-03-05T04:48:18.876Z,37.22
2023-03-05T04:49:21.112Z,37.05
2023-03-05T04:50:23.831Z,38.40
2023-03-05T04:51:26.138Z,40.13
2023-03-05T04:52:28.281Z,45.67
2023-03-05T04:53:30.445Z,38.80
2023-03-05T04:54:33.041Z,39.40
2023-03-05T04:55:35.188Z,43.63
2023-03-05T04:56:37.742Z,40.10
2023-03-05T04:57:40.162Z,44.25
2023-03-05T04:58:42.293Z,42.53
2023-03-05T04:59:44.664Z,39.35
2023-03-05T05:00:46.846Z,40.47
2023-03-05T05:01:49.097Z,41.30
2023-03-05T05:02:52.520Z,40.22
2023-03-05T05:03:54.795Z,39.47
2023-03-05T05:04:56.997Z,35.55
2023-03-05T05:06:01.000Z,40.58
2023-03-05T05:07:03.526Z,45.45
2023-03-05T05:08:05.691Z,39.80
2023-03-05T05:09:08.185Z,33.70
2023-03-05T05:10:11.667Z,42.08
2023-03-05T05:11:14.642Z,44.13
2023-03-05T05:12:17.304Z,36.88
2023-03-05T05:13:19.613Z,35.42
2023-03-05T05:14:22.251Z,38.35
2023-03-05T05:15:24.583Z,38.92
2023-03-05T05:16:26.987Z,38.47
2023-03-05T05:17:32.846Z,42.95
2023-03-05T05:18:35.274Z,40.38
2023-03-05T05:19:37.575Z,40.40
2023-03-05T05:20:39.782Z,39.83
2023-03-05T05:21:42.456Z,39.97
2023-03-05T05:22:44.814Z,39.45
2023-03-05T05:23:47.211Z,39.90
2023-03-05T05:24:49.418Z,39.00
2023-03-05T05:25:58.988Z,39.60
2023-03-05T05:27:01.187Z,43.78
2023-03-05T05:28:04.167Z,37.50
2023-03-05T05:29:06.330Z,40.13
2023-03-05T05:30:09.007Z,43.83
2023-03-05T05:31:13.886Z,42.45
2023-03-05T05:32:17.557Z,38.03
2023-03-05T05:33:20.532Z,40.47
2023-03-05T05:34:25.038Z,41.03
2023-03-05T05:35:27.420Z,41.05
2023-03-05T05:36:29.674Z,36.20
2023-03-05T05:37:31.885Z,42.03
2023-03-05T05:38:35.084Z,43.63
2023-03-05T05:39:37.554Z,38.10
2023-03-05T05:40:40.602Z,42.05
2023-03-05T05:41:42.785Z,37.20
2023-03-05T05:42:45.290Z,39.80
2023-03-05T05:43:47.816Z,41.08
2023-03-05T05:44:50.506Z,42.83
2023-03-05T05:45:52.825Z,44.33
2023-03-05T05:46:55.197Z,36.05
2023-03-05T05:47:57.880Z,40.00
2023-03-05T05:49:00.136Z,42.97
2023-03-05T05:50:02.617Z,39.22
2023-03-05T05:51:10.359Z,44.13
2023-03-05T05:52:13.416Z,44.47
2023-03-05T05:53:15.741Z,41.72
2023-03-05T05:54:18.102Z,44.17
2023-03-05T05:55:20.335Z,38.28
2023-03-05T05:56:22.758Z,41.17
2023-03-05T05:57:25.082Z,40.45
2023-03-05T05:58:27.271Z,39.38
2023-03-05T05:59:29.661Z,42.10
2023-03-05T06:00:31.946Z,40.22
2023-03-05T06:01:34.903Z,37.35
2023-03-05T06:02:41.378Z,35.10
2023-03-05T06:03:43.845Z,39.25
2023-03-05T06:04:46.163Z,43.22
2023-03-05T06:05:48.478Z,43.35
2023-03-05T06:06:50.839Z,39.47
2023-03-05T06:07:53.012Z,37.97
2023-03-05T06:08:56.909Z,39.22
2023-03-05T06:09:59.247Z,41.63
2023-03-05T06:11:01.571Z,40.17
2023-03-05T06:12:04.262Z,35.72
2023-03-05T06:13:06.520Z,39.83
2023-03-05T06:14:11.379Z,42.33
2023-03-05T06:15:13.589Z,37.10
2023-03-05T06:16:24.007Z,35.72
2023-03-05T06:17:30.718Z,40.80
2023-03-05T06:18:34.553Z,39.88
2023-03-05T06:19:36.817Z,45.65
2023-03-05T06:20:39.102Z,39.80
2023-03-05T06:21:43.142Z,43.33
2023-03-05T06:22:45.545Z,42.13
2023-03-05T06:23:48.408Z,42.25
2023-03-05T06:24:50.627Z,40.17
2023-03-05T06:25:53.220Z,42.17
2023-03-05T06:26:55.718Z,40.65
2023-03-05T06:27:57.939Z,46.08
2023-03-05T06:29:00.183Z,43.78
2023-03-05T06:30:03.053Z,47.30
2023-03-05T06:31:07.796Z,38.28
2023-03-05T06:32:10.401Z,37.63
2023-03-05T06:33:12.699Z,45.58
2023-03-05T06:34:14.915Z,44.58
2023-03-05T06:35:17.470Z,40.10
2023-03-05T06:36:21.640Z,40.63
2023-03-05T06:37:24.004Z,45.30
2023-03-05T06:38:26.294Z,45.17
2023-03-05T06:39:30.198Z,41.03
2023-03-05T06:40:32.553Z,42.13
2023-03-05T06:41:34.961Z,45.47
2023-03-05T06:42:37.221Z,40.90
2023-03-05T06:43:41.809Z,38.83
2023-03-05T06:44:44.620Z,43.78
2023-03-05T06:45:48.466Z,41.80
2023-03-05T06:46:50.622Z,42.65
2023-03-05T06:47:53.086Z,43.10
2023-03-05T06:48:57.388Z,43.47
2023-03-05T06:49:59.591Z,42.92
2023-03-05T06:51:01.844Z,43.55
2023-03-05T06:52:05.710Z,47.85
2023-03-05T06:53:08.359Z,40.80
2023-03-05T06:54:15.556Z,43.45
2023-03-05T06:55:18.708Z,44.58
2023-03-05T06:56:21.857Z,43.65
2023-03-05T06:57:24.143Z,40.70
2023-03-05T06:58:26.382Z,41.95
2023-03-05T06:59:28.658Z,42.40
2023-03-05T07:00:31.083Z,41.25
2023-03-05T07:01:33.830Z,43.55
2023-03-05T07:02:40.562Z,40.58
2023-03-05T07:03:43.639Z,43.47
2023-03-05T07:04:46.866Z,45.33
2023-03-05T07:05:49.131Z,49.50
2023-03-05T07:06:51.427Z,48.38
2023-03-05T07:07:53.681Z,43.53
2023-03-05T07:08:57.085Z,44.05
2023-03-05T07:09:59.598Z,44.92
2023-03-05T07:11:02.038Z,45.70
2023-03-05T07:12:04.533Z,41.95
2023-03-05T07:13:07.341Z,43.95
2023-03-05T07:14:09.811Z,41.42
2023-03-05T07:15:12.650Z,44.58
2023-03-05T07:16:17.762Z,46.13
2023-03-05T07:17:20.051Z,49.13
2023-03-05T07:18:22.259Z,41.88
2023-03-05T07:19:24.489Z,46.20
2023-03-05T07:20:26.731Z,46.08
2023-03-05T07:21:31.676Z,39.10
2023-03-05T07:22:33.910Z,43.22
2023-03-05T07:23:36.725Z,45.55
2023-03-05T07:24:39.008Z,41.58
2023-03-05T07:25:41.478Z,43.70
2023-03-05T07:26:43.879Z,43.95
2023-03-05T07:27:46.111Z,44.30
2023-03-05T07:28:48.638Z,41.65
2023-03-05T07:29:51.154Z,44.50
2023-03-05T07:30:58.161Z,43.33
2023-03-05T07:32:00.439Z,43.35
2023-03-05T07:33:02.772Z,46.05
2023-03-05T07:34:06.419Z,36.53
2023-03-05T07:35:09.432Z,44.88
2023-03-05T07:36:12.656Z,43.20
2023-03-05T07:37:15.318Z,39.83
2023-03-05T07:38:17.748Z,42.38
2023-03-05T07:39:20.113Z,38.55
2023-03-05T07:40:22.461Z,39.92
2023-03-05T07:41:24.791Z,43.15
2023-03-05T07:42:27.077Z,43.33
2023-03-05T07:43:45.810Z,40.42
2023-03-05T07:44:48.189Z,41.35
2023-03-05T07:45:50.410Z,49.13
2023-03-05T07:46:52.630Z,39.95
2023-03-05T07:47:56.124Z,42.65
2023-03-05T07:48:58.846Z,40.42
2023-03-05T07:50:01.550Z,43.25
2023-03-05T07:51:06.173Z,40.58
2023-03-05T07:52:09.482Z,40.60
2023-03-05T07:53:12.056Z,44.95
2023-03-05T07:54:14.312Z,40.88
2023-03-05T07:55:16.653Z,45.10
2023-03-05T07:56:31.885Z,41.17
2023-03-05T07:57:35.423Z,44.92
2023-03-05T07:58:37.777Z,37.65
2023-03-05T07:59:40.202Z,40.28
2023-03-05T08:00:42.457Z,45.03
2023-03-05T08:01:46.255Z,39.42
2023-03-05T08:02:50.101Z,44.92
2023-03-05T08:03:52.419Z,40.97
2023-03-05T08:04:54.920Z,43.47
2023-03-05T08:05:57.143Z,38.75
2023-03-05T08:07:00.048Z,41.33
2023-03-05T08:08:02.324Z,38.25
2023-03-05T08:09:04.534Z,40.42
2023-03-05T08:10:07.533Z,40.00
2023-03-05T08:11:11.990Z,41.75
2023-03-05T08:12:14.201Z,41.20
2023-03-05T08:13:16.565Z,40.30
2023-03-05T08:14:18.854Z,44.10
2023-03-05T08:15:21.122Z,44.30
2023-03-05T08:16:25.899Z,43.03
2023-03-05T08:17:28.120Z,40.88
2023-03-05T08:18:30.501Z,40.72
2023-03-05T08:19:33.367Z,42.40
2023-03-05T08:20:36.498Z,43.55
2023-03-05T08:21:38.894Z,44.72
2023-03-05T08:22:41.102Z,37.88
2023-03-05T08:23:44.048Z,40.53
2023-03-05T08:24:46.392Z,38.72
2023-03-05T08:25:48.706Z,39.97
2023-03-05T08:26:50.957Z,42.67
2023-03-05T08:27:53.128Z,41.72
2023-03-05T08:28:55.608Z,42.00
2023-03-05T08:29:57.888Z,40.90
2023-03-05T08:31:00.202Z,41.00
2023-03-05T08:32:02.571Z,41.55
2023-03-05T08:33:04.898Z,43.20
2023-03-05T08:34:07.481Z,35.63
2023-03-05T08:35:09.921Z,43.85
2023-03-05T08:36:13.308Z,44.58
2023-03-05T08:37:16.162Z,41.28
2023-03-05T08:38:20.943Z,41.50
2023-03-05T08:39:23.366Z,37.05
2023-03-05T08:40:26.158Z,38.90
2023-03-05T08:41:28.491Z,41.65
2023-03-05T08:42:30.781Z,38.20
2023-03-05T08:43:33.323Z,37.78
2023-03-05T08:44:35.750Z,37.50
2023-03-05T08:45:39.961Z,40.45
2023-03-05T08:46:42.311Z,39.45
2023-03-05T08:47:44.798Z,41.38
2023-03-05T08:48:47.043Z,43.80
2023-03-05T08:49:49.388Z,39.03
2023-03-05T08:50:51.931Z,42.42
2023-03-05T08:51:54.216Z,40.03
2023-03-05T08:52:57.056Z,42.95
2023-03-05T08:54:00.233Z,40.47
2023-03-05T08:55:02.839Z,41.33
2023-03-05T08:56:05.549Z,45.13
2023-03-05T08:57:08.395Z,41.30
2023-03-05T08:58:10.599Z,42.53
2023-03-05T08:59:13.776Z,40.25
2023-03-05T09:00:17.091Z,42.50
2023-03-05T09:01:19.606Z,43.08
2023-03-05T09:02:21.933Z,42.10
2023-03-05T09:03:24.284Z,41.13
2023-03-05T09:04:26.731Z,42.03
2023-03-05T09:05:29.190Z,40.65
2023-03-05T09:06:31.504Z,40.78
2023-03-05T09:07:33.724Z,42.35
2023-03-05T09:08:36.233Z,44.17
2023-03-05T09:09:38.482Z,40.63
2023-03-05T09:10:44.806Z,38.63
2023-03-05T09:11:47.550Z,43.40
2023-03-05T09:12:49.879Z,44.70
2023-03-05T09:13:53.531Z,43.53
2023-03-05T09:14:56.388Z,43.03
2023-03-05T09:16:01.990Z,38.83
2023-03-05T09:17:04.243Z,43.65
2023-03-05T09:18:08.933Z,40.08
2023-03-05T09:19:12.760Z,41.10
2023-03-05T09:20:16.829Z,39.35
2023-03-05T09:21:19.206Z,37.47
2023-03-05T09:22:21.502Z,38.28
2023-03-05T09:23:25.088Z,37.15
2023-03-05T09:24:27.871Z,37.53
2023-03-05T09:25:30.140Z,41.50
2023-03-05T09:26:32.655Z,37.13
2023-03-05T09:27:36.385Z,43.50
2023-03-05T09:28:39.610Z,41.17
2023-03-05T09:29:43.248Z,40.35
2023-03-05T09:30:45.902Z,39.05
2023-03-05T09:31:51.537Z,37.53
2023-03-05T09:32:53.861Z,43.53
2023-03-05T09:33:56.141Z,40.47
2023-03-05T09:34:58.986Z,38.60
2023-03-05T09:36:02.032Z,38.67
2023-03-05T09:37:04.367Z,40.67
2023-03-05T09:38:06.685Z,40.95
2023-03-05T09:39:08.933Z,37.42
2023-03-05T09:40:21.699Z,38.88
2023-03-05T09:41:45.501Z,38.85
2023-03-05T09:43:03.518Z,38.45
2023-03-05T09:44:36.029Z,35.60
2023-03-05T09:45:41.438Z,37.63
2023-03-05T09:47:09.933Z,32.63
2023-03-05T09:48:21.355Z,33.33
2023-03-05T09:49:59.989Z,29.27
2023-03-05T09:51:04.285Z,34.45
2023-03-05T09:52:22.150Z,33.95
2023-03-05T09:53:42.798Z,33.50
2023-03-05T09:54:49.587Z,30.33
2023-03-05T09:55:58.187Z,29.90
2023-03-05T09:57:04.374Z,31.90
2023-03-05T09:58:34.159Z,31.33
2023-03-05T09:59:56.090Z,27.38
2023-03-05T10:01:02.498Z,28.65
2023-03-05T10:02:23.179Z,30.35
2023-03-05T10:03:30.536Z,23.50
2023-03-05T10:05:17.016Z,28.55
2023-03-05T10:06:29.082Z,27.50
2023-03-05T10:07:36.349Z,23.33
2023-03-05T10:08:48.620Z,23.50
2023-03-05T10:09:56.996Z,26.10
2023-03-05T10:11:07.430Z,27.50
2023-03-05T10:12:20.859Z,25.10
2023-03-05T10:13:36.910Z,24.20
2023-03-05T10:14:40.760Z,25.83
2023-03-05T10:15:53.717Z,23.40
2023-03-05T10:17:25.428Z,23.98
2023-03-05T10:18:37.167Z,29.02
2023-03-05T10:20:07.214Z,25.58
2023-03-05T10:21:31.216Z,24.70
2023-03-05T10:22:55.499Z,22.10
2023-03-05T10:24:13.412Z,23.80
2023-03-05T10:25:33.915Z,21.95
2023-03-05T10:26:52.368Z,20.95
2023-03-05T10:28:07.779Z,23.13
2023-03-05T10:29:39.371Z,24.42
2023-03-05T10:30:58.090Z,29.48
2023-03-05T10:32:29.382Z,25.88
2023-03-05T10:33:54.729Z,29.27
2023-03-05T10:35:12.098Z,28.95
2023-03-05T10:36:25.955Z,27.50
2023-03-05T10:37:56.439Z,27.50
2023-03-05T10:39:29.423Z,26.95
2023-03-05T10:40:54.497Z,32.55
2023-03-05T10:42:31.033Z,25.42
2023-03-05T10:43:42.040Z,26.75
2023-03-05T10:44:54.936Z,27.42
2023-03-05T10:45:58.225Z,25.30
2023-03-05T10:47:02.836Z,25.63
2023-03-05T10:48:14.278Z,25.38
2023-03-05T10:49:24.660Z,25.67
2023-03-05T10:50:33.662Z,28.08
2023-03-05T10:51:47.585Z,25.10
2023-03-05T10:53:02.240Z,23.88
2023-03-05T10:54:29.548Z,22.95
2023-03-05T10:55:32.205Z,24.42
2023-03-05T10:56:34.517Z,25.98
2023-03-05T10:57:36.746Z,26.63
2023-03-05T10:58:38.923Z,25.95
2023-03-05T11:00:06.853Z,29.70
2023-03-05T11:01:12.270Z,26.85
2023-03-05T11:02:14.896Z,27.95
2023-03-05T11:03:17.174Z,28.33
2023-03-05T11:04:32.128Z,26.20
2023-03-05T11:05:50.958Z,28.40
2023-03-05T11:06:53.267Z,27.30
2023-03-05T11:07:55.487Z,28.52
2023-03-05T11:09:18.093Z,27.10
2023-03-05T11:10:21.554Z,24.52
2023-03-05T11:11:23.898Z,28.52
2023-03-05T11:12:37.221Z,26.70
2023-03-05T11:14:00.887Z,21.58
2023-03-05T11:15:14.917Z,25.70
2023-03-05T11:16:21.705Z,24.83
2023-03-05T11:17:24.193Z,23.40
2023-03-05T11:18:26.694Z,20.17
2023-03-05T11:19:32.971Z,25.17
2023-03-05T11:20:36.319Z,23.95
2023-03-05T11:21:38.579Z,24.42
2023-03-05T11:22:40.972Z,24.05
2023-03-05T11:23:43.517Z,22.02
2023-03-05T11:25:06.216Z,19.65
2023-03-05T11:26:14.096Z,18.50
2023-03-05T11:27:35.924Z,20.45
2023-03-05T11:28:41.130Z,20.65
2023-03-05T11:29:49.347Z,19.77
2023-03-05T11:31:07.344Z,25.10
2023-03-05T11:32:21.232Z,22.33
2023-03-05T11:33:24.462Z,23.85
2023-03-05T11:34:35.099Z,21.88
2023-03-05T11:35:41.977Z,22.13
2023-03-05T11:37:03.736Z,22.60
2023-03-05T11:38:26.019Z,21.20
2023-03-05T11:39:30.366Z,19.02
2023-03-05T11:40:37.293Z,24.33
2023-03-05T11:42:04.362Z,23.45
2023-03-05T11:43:06.523Z,21.05
2023-03-05T11:44:20.770Z,20.58
2023-03-05T11:45:25.801Z,23.40
2023-03-05T11:46:28.704Z,20.05
2023-03-05T11:47:47.729Z,22.33
2023-03-05T11:48:50.418Z,26.27
2023-03-05T11:50:00.271Z,22.05
2023-03-05T11:51:13.621Z,24.95
2023-03-05T11:52:22.813Z,21.40
2023-03-05T11:53:36.799Z,19.10
2023-03-05T11:55:23.983Z,21.75
2023-03-05T11:56:36.797Z,22.88
2023-03-05T11:58:07.786Z,26.00
2023-03-05T11:59:26.817Z,20.27
2023-03-05T12:00:31.673Z,21.85
2023-03-05T12:01:43.331Z,21.38
2023-03-05T12:02:52.224Z,18.52
2023-03-05T12:03:55.522Z,20.45
2023-03-05T12:04:59.931Z,19.13
2023-03-05T12:06:13.998Z,22.20
2023-03-05T12:07:41.817Z,19.48
2023-03-05T12:08:51.147Z,20.10
2023-03-05T12:09:54.178Z,17.95
2023-03-05T12:10:59.286Z,18.63
2023-03-05T12:12:06.348Z,22.45
2023-03-05T12:13:15.317Z,19.42
2023-03-05T12:14:28.742Z,17.27
2023-03-05T12:16:01.072Z,17.50
2023-03-05T12:17:42.261Z,19.45
2023-03-05T12:19:07.017Z,16.58
2023-03-05T12:20:22.551Z,17.10
2023-03-05T12:21:38.255Z,18.90
2023-03-05T12:22:42.040Z,18.58
2023-03-05T12:24:01.729Z,18.35
2023-03-05T12:25:34.932Z,16.92
2023-03-05T12:27:04.571Z,16.25
2023-03-05T12:28:15.091Z,19.00
2023-03-05T12:29:43.869Z,17.83
2023-03-05T12:30:46.056Z,17.83
2023-03-05T12:31:48.966Z,16.85
2023-03-05T12:32:52.688Z,16.25
2023-03-05T12:33:54.943Z,18.80
2023-03-05T12:35:24.572Z,19.88
2023-03-05T12:36:34.793Z,16.20
2023-03-05T12:37:51.965Z,19.67
2023-03-05T12:38:57.465Z,15.70
2023-03-05T12:40:07.943Z,16.63
2023-03-05T12:41:22.154Z,16.85
2023-03-05T12:42:30.393Z,15.55
2023-03-05T12:43:33.972Z,17.45
2023-03-05T12:44:36.196Z,16.45
2023-03-05T12:45:40.908Z,18.48
2023-03-05T12:46:44.784Z,21.55
2023-03-05T12:47:53.719Z,21.42
2023-03-05T12:48:55.996Z,17.63
2023-03-05T12:50:00.981Z,18.85
2023-03-05T12:51:03.832Z,22.65
2023-03-05T12:52:23.686Z,18.60
2023-03-05T12:53:25.903Z,20.80
2023-03-05T12:54:28.683Z,18.35
2023-03-05T12:55:39.835Z,17.92
2023-03-05T12:56:46.404Z,18.42
2023-03-05T12:57:56.406Z,20.83
2023-03-05T12:59:01.663Z,22.13
2023-03-05T13:00:14.304Z,18.95
2023-03-05T13:01:36.030Z,17.83
2023-03-05T13:02:44.529Z,16.02
2023-03-05T13:04:10.527Z,15.20
2023-03-05T13:05:25.193Z,14.43
2023-03-05T13:06:32.488Z,16.85
2023-03-05T13:07:35.102Z,17.42
2023-03-05T13:08:37.840Z,16.40
2023-03-05T13:09:40.350Z,14.45
2023-03-05T13:10:43.590Z,19.73
2023-03-05T13:11:50.082Z,16.10
2023-03-05T13:12:54.434Z,19.38
2023-03-05T13:13:57.706Z,16.60
2023-03-05T13:15:05.701Z,16.52
2023-03-05T13:16:18.820Z,18.70
2023-03-05T13:17:32.506Z,20.30
2023-03-05T13:18:35.159Z,15.95
2023-03-05T13:19:41.591Z,16.80
2023-03-05T13:20:44.406Z,16.98
2023-03-05T13:21:59.840Z,18.40
2023-03-05T13:23:21.073Z,16.35
2023-03-05T13:24:23.686Z,15.68
2023-03-05T13:25:26.050Z,16.50
2023-03-05T13:26:38.313Z,16.17
2023-03-05T13:27:42.683Z,16.55
2023-03-05T13:29:28.107Z,17.30
2023-03-05T13:30:30.909Z,16.55
2023-03-05T13:31:36.171Z,16.58
2023-03-05T13:32:38.573Z,14.88
2023-03-05T13:33:41.096Z,16.65
2023-03-05T13:34:48.159Z,14.05
2023-03-05T13:35:52.366Z,15.23
2023-03-05T13:37:18.663Z,15.80
2023-03-05T13:38:45.075Z,17.35
2023-03-05T13:39:55.263Z,17.52
2023-03-05T13:41:04.191Z,18.73
2023-03-05T13:42:19.109Z,15.68
2023-03-05T13:43:21.415Z,15.50
2023-03-05T13:44:23.619Z,17.80
2023-03-05T13:45:28.813Z,17.60
2023-03-05T13:46:39.339Z,15.75
2023-03-05T13:47:58.338Z,14.93
2023-03-05T13:49:38.954Z,17.88
2023-03-05T13:50:41.369Z,19.45
2023-03-05T13:51:45.550Z,18.58
2023-03-05T13:52:47.747Z,17.95
2023-03-05T13:53:50.737Z,17.40
2023-03-05T13:54:53.120Z,20.45
2023-03-05T13:56:01.385Z,18.38
2023-03-05T13:57:08.546Z,17.25
2023-03-05T13:58:41.807Z,16.10
2023-03-05T13:59:52.343Z,20.38
2023-03-05T14:01:12.677Z,16.02
2023-03-05T14:02:19.864Z,17.35
2023-03-05T14:03:28.194Z,20.88
2023-03-05T14:04:41.209Z,19.10
2023-03-05T14:05:45.257Z,21.02
2023-03-05T14:07:03.585Z,23.00
2023-03-05T14:08:05.896Z,19.58
2023-03-05T14:09:20.369Z,19.67
2023-03-05T14:10:37.414Z,27.10